Fenton, IA (50539)

5:11 AM CDT on October 01, 2016 (GMT -0500)
APRSWXNET | | Change Station

Elev 1233 ft 43.16 °N, 94.36 °W | Updated 44 minutes ago

Overcast
Overcast
55 °F
Feels Like 55 °F
N
0
Wind Variable Wind from SSW
Gusts 0.0 mph

Today
High -- | Low -- °F
--% Chance of Precip.
Yesterday
High -- | Low -- °F
Precip. -- in
Pressure 30.16 in
Visibility 10.0 miles
Clouds Overcast 2900 ft
Dew Point 53 °F
Humidity 94%
Rainfall in
Snow Depth Not available.
7:15 AM 6:57 PM
New Moon, 0% visible
METAR KAXA 010955Z AUTO 36004KT 10SM OVC029 14/13 A3016 RMK AO2
Pressure 30.16 in
Visibility 10.0 miles
Clouds Overcast 2900 ft
Dew Point 53 °F
Humidity 94%
Rainfall in
Snow Depth Not available.
7:15 AM 6:57 PM
New Moon, 0% visible
METAR KAXA 010955Z AUTO 36004KT 10SM OVC029 14/13 A3016 RMK AO2

10-Day Weather Forecast

Almanac

Astronomy

Oct. 01, 2016 Rise Set
Actual Time
Civil Twilight
Nautical Twilight
Astronomical Twilight
Moon
Length of Visible Light
Length of Day
Tomorrow will be .
, % of the Moon is Illuminated

Today's Extremes

State Highs State Lows

Community

WunderPhotos

Upload Photos

1,942,908 photos uploaded!

WunderBlog® & News

Nearby

Air Quality

  Air Quality AQ Index Pollutant
Not available.

Snow Depth

Station Depth Elevation

Earthquake Activity

City Distance Mag. Time & Date
Minimum magnitude displayed is 2.5.

Coastal Water Temperatures

Place Temperature

Stations

Nearby Weather Stations

Station Location Temp. Windchill Dew Point Humidity Wind Precip. Elev Updated Type
                   

Watches & Warnings

There are currently no watches in effect.